Time;durP1;ratioP1;P1;durP2;ratioP2;P2;SDS_P1;SDS_P2;PMS_P1;PMS_P2;Temp;Humidity;BMP_temperature;BMP_pressure;BME280_temperature;BME280_humidity;BME280_pressure;Samples;Min_cycle;Max_cycle;Signal;HPM_P1;HPM_P2
2022/03/21 00:02:07;;;;;;;7.70;5.65;;;;;;;;;;5035238;28;20090;-71
2022/03/21 00:04:33;;;;;;;10.10;6.15;;;;;;;;;;5040204;28;20515;-70
2022/03/21 00:06:59;;;;;;;10.13;6.10;;;;;;;;;;5036799;28;20425;-70
2022/03/21 00:09:25;;;;;;;7.75;6.00;;;;;;;;;;5035259;28;20097;-70
2022/03/21 00:11:53;;;;;;;8.25;6.13;;;;;;;;;;5039625;28;20025;-71
2022/03/21 00:14:19;;;;;;;10.63;6.50;;;;;;;;;;5040161;28;20214;-70
2022/03/21 00:16:46;;;;;;;8.70;6.10;;;;;;;;;;5036471;28;20115;-70
2022/03/21 00:19:12;;;;;;;8.38;6.50;;;;;;;;;;5036663;28;20055;-70
2022/03/21 00:21:38;;;;;;;9.35;6.03;;;;;;;;;;5035407;28;20025;-70
2022/03/21 00:24:05;;;;;;;8.70;6.65;;;;;;;;;;5034217;28;20027;-70
2022/03/21 00:26:31;;;;;;;12.38;6.47;;;;;;;;;;5041462;28;20033;-70
2022/03/21 00:28:57;;;;;;;12.07;7.05;;;;;;;;;;5037033;28;20569;-70
2022/03/21 00:31:24;;;;;;;11.80;6.53;;;;;;;;;;5034063;28;20032;-70
2022/03/21 00:33:50;;;;;;;9.48;6.65;;;;;;;;;;5035765;28;20028;-70
2022/03/21 00:36:17;;;;;;;9.00;6.28;;;;;;;;;;5033658;28;20302;-70
2022/03/21 00:38:44;;;;;;;8.38;6.57;;;;;;;;;;5037330;28;20042;-70
2022/03/21 00:41:10;;;;;;;11.20;7.25;;;;;;;;;;5034715;28;20108;-70
2022/03/21 00:43:37;;;;;;;12.80;7.13;;;;;;;;;;5035228;28;20029;-75
2022/03/21 00:46:03;;;;;;;10.05;7.93;;;;;;;;;;5035908;28;20021;-71
2022/03/21 00:48:30;;;;;;;12.20;9.82;;;;;;;;;;5037864;28;20040;-69
2022/03/21 00:50:58;;;;;;;12.93;10.25;;;;;;;;;;5036817;28;20030;-70
2022/03/21 00:53:24;;;;;;;15.65;9.38;;;;;;;;;;5033391;28;20080;-71
2022/03/21 00:55:52;;;;;;;12.13;10.77;;;;;;;;;;5037178;28;20021;-70
2022/03/21 00:58:19;;;;;;;13.25;10.10;;;;;;;;;;5033808;28;20128;-70
2022/03/21 01:00:45;;;;;;;17.58;9.68;;;;;;;;;;5032493;28;20596;-70
2022/03/21 01:03:11;;;;;;;15.15;9.55;;;;;;;;;;5035335;28;20025;-70
2022/03/21 01:05:38;;;;;;;11.98;8.15;;;;;;;;;;5029562;28;20091;-71
2022/03/21 01:08:04;;;;;;;9.13;8.15;;;;;;;;;;5038770;28;20051;-70
2022/03/21 01:10:31;;;;;;;11.13;8.35;;;;;;;;;;5040208;28;20029;-70
2022/03/21 01:12:57;;;;;;;10.68;7.70;;;;;;;;;;5036286;28;20029;-70
2022/03/21 01:15:25;;;;;;;12.32;8.13;;;;;;;;;;5044062;28;20116;-70
2022/03/21 01:17:51;;;;;;;9.43;7.40;;;;;;;;;;5037033;28;20041;-74
2022/03/21 01:20:19;;;;;;;12.68;7.47;;;;;;;;;;5038125;28;20086;-70
2022/03/21 01:22:45;;;;;;;12.23;7.18;;;;;;;;;;5038182;28;20132;-70
2022/03/21 01:25:12;;;;;;;9.98;6.75;;;;;;;;;;5039078;28;20071;-70
2022/03/21 01:27:39;;;;;;;10.57;7.45;;;;;;;;;;5040992;28;20021;-70
2022/03/21 01:30:06;;;;;;;8.90;7.03;;;;;;;;;;5043343;28;20500;-70
2022/03/21 01:32:34;;;;;;;11.82;7.72;;;;;;;;;;5031927;28;20033;-70
2022/03/21 01:35:01;;;;;;;9.57;6.43;;;;;;;;;;5032973;28;20017;-70
2022/03/21 01:37:27;;;;;;;8.20;6.68;;;;;;;;;;5039964;28;20040;-74
2022/03/21 01:39:54;;;;;;;9.73;6.63;;;;;;;;;;5034634;28;20025;-70
2022/03/21 01:42:20;;;;;;;7.15;5.78;;;;;;;;;;5033139;28;20728;-70
2022/03/21 01:44:50;;;;;;;9.23;6.28;;;;;;;;;;5037359;28;20033;-70
2022/03/21 01:47:17;;;;;;;7.10;5.78;;;;;;;;;;5033614;28;20539;-77
2022/03/21 01:49:43;;;;;;;7.80;6.15;;;;;;;;;;5032829;28;20159;-70
2022/03/21 01:52:09;;;;;;;7.32;5.82;;;;;;;;;;5033128;28;20516;-70
2022/03/21 01:57:21;;;;;;;11.93;6.28;;;;;;;;;;5033209;28;20137;-69
2022/03/21 01:59:48;;;;;;;7.57;6.07;;;;;;;;;;5035354;28;20689;-70
2022/03/21 02:02:15;;;;;;;9.07;6.30;;;;;;;;;;5034274;28;20136;-73
2022/03/21 02:04:42;;;;;;;8.52;5.90;;;;;;;;;;5037392;28;20029;-70
2022/03/21 02:07:08;;;;;;;7.78;5.75;;;;;;;;;;5034894;28;20457;-70
2022/03/21 02:09:35;;;;;;;9.75;6.05;;;;;;;;;;5036168;28;20032;-70
2022/03/21 02:12:01;;;;;;;9.52;6.50;;;;;;;;;;5033401;28;20028;-71
2022/03/21 02:14:27;;;;;;;12.55;7.03;;;;;;;;;;5039367;28;20128;-70
2022/03/21 02:16:53;;;;;;;7.47;5.88;;;;;;;;;;5033835;28;20017;-70
2022/03/21 02:19:29;;;;;;;8.88;5.90;;;;;;;;;;5031765;28;20041;-70
2022/03/21 02:22:13;;;;;;;8.50;5.80;;;;;;;;;;5033766;28;20028;-70
2022/03/21 02:24:39;;;;;;;8.90;5.80;;;;;;;;;;5035435;28;20029;-70
2022/03/21 02:27:07;;;;;;;7.85;6.00;;;;;;;;;;5035056;28;20043;-70
2022/03/21 02:29:33;;;;;;;8.35;6.35;;;;;;;;;;5036436;28;20031;-70
2022/03/21 02:32:00;;;;;;;7.65;5.30;;;;;;;;;;5031153;28;20141;-70
2022/03/21 02:34:26;;;;;;;7.50;5.70;;;;;;;;;;5034945;28;20036;-70
2022/03/21 02:36:54;;;;;;;8.98;5.70;;;;;;;;;;5038974;28;20025;-71
2022/03/21 02:39:21;;;;;;;7.10;5.78;;;;;;;;;;5035065;28;20171;-70
2022/03/21 02:41:48;;;;;;;8.38;6.00;;;;;;;;;;5032362;28;20040;-70
2022/03/21 02:44:15;;;;;;;6.82;5.35;;;;;;;;;;5033870;28;20036;-71
2022/03/21 02:46:41;;;;;;;10.07;5.10;;;;;;;;;;5033612;28;20401;-70
2022/03/21 02:49:07;;;;;;;6.10;4.82;;;;;;;;;;5032968;28;20032;-71
2022/03/21 02:51:37;;;;;;;7.03;5.10;;;;;;;;;;5028653;28;20036;-70
2022/03/21 02:54:03;;;;;;;8.35;5.30;;;;;;;;;;5033400;28;20071;-69
2022/03/21 02:56:30;;;;;;;7.20;5.70;;;;;;;;;;5033912;28;20787;-70
2022/03/21 02:58:56;;;;;;;9.70;5.05;;;;;;;;;;5033463;28;20690;-71
2022/03/21 03:01:22;;;;;;;7.90;4.80;;;;;;;;;;5033654;28;20025;-70
2022/03/21 03:03:48;;;;;;;6.35;4.93;;;;;;;;;;5031684;28;20037;-70
2022/03/21 03:06:14;;;;;;;6.78;5.00;;;;;;;;;;5033697;28;20029;-70
2022/03/21 03:08:41;;;;;;;6.93;5.20;;;;;;;;;;5035694;28;20045;-70
2022/03/21 03:11:07;;;;;;;6.60;4.30;;;;;;;;;;5031269;28;20064;-70
2022/03/21 03:13:34;;;;;;;6.32;4.90;;;;;;;;;;5037071;28;20049;-70
2022/03/21 03:16:00;;;;;;;5.65;4.90;;;;;;;;;;5031230;28;20029;-70
2022/03/21 03:18:26;;;;;;;6.15;4.68;;;;;;;;;;5033908;28;20033;-70
2022/03/21 03:20:54;;;;;;;7.82;4.75;;;;;;;;;;5029300;28;20036;-70
2022/03/21 03:23:22;;;;;;;6.75;4.95;;;;;;;;;;5029754;28;20029;-70
2022/03/21 03:25:49;;;;;;;6.78;4.70;;;;;;;;;;5037121;28;20537;-70
2022/03/21 03:28:16;;;;;;;7.90;4.78;;;;;;;;;;5035210;28;20032;-70
2022/03/21 03:30:42;;;;;;;5.78;4.80;;;;;;;;;;5035256;28;20025;-70
2022/03/21 03:33:09;;;;;;;6.80;4.60;;;;;;;;;;5030242;28;20037;-70
2022/03/21 03:35:35;;;;;;;6.70;4.40;;;;;;;;;;5035744;28;20029;-71
2022/03/21 03:38:02;;;;;;;6.03;4.53;;;;;;;;;;5037999;28;20159;-70
2022/03/21 03:40:28;;;;;;;8.13;4.45;;;;;;;;;;5035746;28;20032;-70
2022/03/21 03:42:54;;;;;;;10.50;4.50;;;;;;;;;;5032902;28;20020;-70
2022/03/21 03:45:20;;;;;;;6.55;4.38;;;;;;;;;;5036574;28;20359;-71
2022/03/21 03:47:47;;;;;;;6.13;4.30;;;;;;;;;;5031348;28;20033;-71
2022/03/21 03:50:13;;;;;;;6.95;4.70;;;;;;;;;;5035452;28;20025;-71
2022/03/21 03:52:40;;;;;;;5.53;3.97;;;;;;;;;;5036711;28;20024;-70
2022/03/21 03:55:07;;;;;;;6.90;4.63;;;;;;;;;;5036689;28;20032;-71
2022/03/21 03:57:33;;;;;;;8.50;4.35;;;;;;;;;;5033035;28;20029;-70
2022/03/21 03:59:59;;;;;;;5.57;4.22;;;;;;;;;;5036325;28;20047;-70
2022/03/21 04:02:25;;;;;;;6.35;3.95;;;;;;;;;;5033849;28;20032;-70
2022/03/21 04:04:51;;;;;;;5.13;4.07;;;;;;;;;;5032770;28;20057;-71
2022/03/21 04:07:19;;;;;;;7.15;4.13;;;;;;;;;;5035854;28;20052;-70
2022/03/21 04:09:45;;;;;;;7.13;4.43;;;;;;;;;;5035586;28;20029;-70
2022/03/21 04:12:11;;;;;;;6.38;4.25;;;;;;;;;;5033879;28;20029;-70
2022/03/21 04:14:37;;;;;;;7.57;3.90;;;;;;;;;;5039150;28;20203;-70
2022/03/21 04:17:04;;;;;;;5.40;3.88;;;;;;;;;;5032653;28;20663;-70
2022/03/21 04:19:30;;;;;;;6.63;3.72;;;;;;;;;;5033002;28;20083;-71
2022/03/21 04:21:56;;;;;;;6.05;4.28;;;;;;;;;;5026419;28;20029;-70
2022/03/21 04:24:22;;;;;;;6.75;4.28;;;;;;;;;;5031533;28;20032;-71
2022/03/21 04:26:48;;;;;;;7.15;4.10;;;;;;;;;;5030772;28;20087;-72
2022/03/21 04:29:14;;;;;;;6.75;4.72;;;;;;;;;;5028740;28;20118;-70
2022/03/21 04:31:41;;;;;;;6.97;4.70;;;;;;;;;;5028287;28;20274;-70
2022/03/21 04:34:07;;;;;;;10.02;5.72;;;;;;;;;;5032505;28;20040;-70
2022/03/21 04:36:33;;;;;;;6.72;4.57;;;;;;;;;;5033877;28;20036;-70
2022/03/21 04:38:59;;;;;;;9.18;5.03;;;;;;;;;;5027590;28;20565;-70
2022/03/21 04:41:25;;;;;;;7.65;4.57;;;;;;;;;;5029536;28;20025;-71
2022/03/21 04:43:51;;;;;;;7.50;5.05;;;;;;;;;;5032993;28;20575;-70
2022/03/21 04:46:18;;;;;;;5.57;4.85;;;;;;;;;;5034137;28;20040;-70
2022/03/21 04:48:44;;;;;;;5.53;4.50;;;;;;;;;;5033706;28;20385;-75
2022/03/21 04:51:10;;;;;;;5.57;4.50;;;;;;;;;;5032390;28;20668;-70
2022/03/21 04:53:36;;;;;;;7.43;4.40;;;;;;;;;;5033484;28;20552;-70
2022/03/21 04:56:03;;;;;;;7.13;4.88;;;;;;;;;;5034054;28;20025;-76
2022/03/21 04:58:29;;;;;;;6.88;4.35;;;;;;;;;;5032851;28;20057;-70
2022/03/21 05:00:55;;;;;;;4.75;4.20;;;;;;;;;;5037465;28;20527;-70
2022/03/21 05:03:22;;;;;;;6.47;4.57;;;;;;;;;;5035629;28;20028;-70
2022/03/21 05:05:48;;;;;;;6.88;4.53;;;;;;;;;;5036634;28;20831;-70
2022/03/21 05:08:14;;;;;;;5.88;4.20;;;;;;;;;;5036462;28;20028;-70
2022/03/21 05:10:42;;;;;;;8.38;4.57;;;;;;;;;;5033828;28;20021;-69
2022/03/21 05:13:08;;;;;;;6.70;4.45;;;;;;;;;;5033342;28;20039;-70
2022/03/21 05:15:34;;;;;;;4.85;4.00;;;;;;;;;;5036909;28;20040;-69
2022/03/21 05:18:01;;;;;;;6.63;4.50;;;;;;;;;;5036257;28;20071;-70
2022/03/21 05:20:27;;;;;;;5.32;4.47;;;;;;;;;;5032392;28;20367;-70
2022/03/21 05:31:08;;;;;;;4.93;4.10;;;;;;;;;;5034048;28;20297;-70
2022/03/21 05:36:25;;;;;;;5.43;4.20;;;;;;;;;;5031828;28;20068;-70
2022/03/21 05:38:51;;;;;;;5.72;3.90;;;;;;;;;;5030980;28;20033;-70
2022/03/21 05:41:17;;;;;;;4.88;3.83;;;;;;;;;;5033875;28;20028;-70
2022/03/21 05:43:44;;;;;;;4.63;3.63;;;;;;;;;;5031328;28;20403;-71
2022/03/21 05:46:10;;;;;;;7.28;4.25;;;;;;;;;;5034258;28;20109;-70
2022/03/21 05:48:54;;;;;;;6.40;4.30;;;;;;;;;;5032904;28;20086;-70
2022/03/21 05:51:27;;;;;;;4.53;3.45;;;;;;;;;;5032034;28;20086;-70
2022/03/21 05:53:53;;;;;;;8.80;4.40;;;;;;;;;;5029500;28;20476;-70
2022/03/21 05:56:19;;;;;;;6.15;3.85;;;;;;;;;;5031972;28;20024;-71
2022/03/21 05:58:46;;;;;;;6.88;4.05;;;;;;;;;;5031608;28;20041;-70
2022/03/21 06:01:12;;;;;;;6.80;3.90;;;;;;;;;;5033233;28;20028;-70
2022/03/21 06:03:39;;;;;;;5.00;3.72;;;;;;;;;;5028166;28;20045;-71
2022/03/21 06:06:05;;;;;;;5.97;4.05;;;;;;;;;;5032579;28;20036;-70
2022/03/21 06:08:31;;;;;;;5.50;4.20;;;;;;;;;;5032313;28;20041;-70
2022/03/21 06:11:04;;;;;;;6.25;4.05;;;;;;;;;;5030321;28;20022;-70
2022/03/21 06:13:33;;;;;;;6.15;4.13;;;;;;;;;;5029368;28;20383;-69
2022/03/21 06:16:03;;;;;;;4.93;3.83;;;;;;;;;;5033379;28;20047;-70
2022/03/21 06:18:30;;;;;;;5.85;3.85;;;;;;;;;;5029743;28;20436;-70
2022/03/21 06:20:56;;;;;;;10.45;5.20;;;;;;;;;;5032317;28;20113;-71
2022/03/21 06:23:23;;;;;;;10.85;5.53;;;;;;;;;;5031605;28;20064;-70
2022/03/21 06:25:49;;;;;;;7.60;6.03;;;;;;;;;;5029320;28;20014;-71
2022/03/21 06:28:15;;;;;;;10.75;5.80;;;;;;;;;;5032065;28;20915;-70
2022/03/21 06:30:41;;;;;;;8.65;5.45;;;;;;;;;;5033532;28;20029;-70
2022/03/21 06:33:07;;;;;;;8.05;5.50;;;;;;;;;;5034804;28;20037;-70
2022/03/21 06:35:33;;;;;;;5.88;4.50;;;;;;;;;;5030244;28;20025;-70
2022/03/21 06:37:59;;;;;;;5.40;3.05;;;;;;;;;;5031301;28;20044;-70
2022/03/21 06:40:26;;;;;;;8.82;5.30;;;;;;;;;;5029532;28;20121;-69
2022/03/21 06:42:53;;;;;;;11.77;6.97;;;;;;;;;;5031569;28;20037;-70
2022/03/21 06:45:19;;;;;;;13.43;8.32;;;;;;;;;;5034840;28;20051;-69
2022/03/21 06:47:45;;;;;;;11.00;8.25;;;;;;;;;;5028185;28;20122;-70
2022/03/21 06:50:12;;;;;;;11.82;8.05;;;;;;;;;;5033433;28;20033;-70
2022/03/21 06:52:39;;;;;;;9.45;6.97;;;;;;;;;;5031969;28;20060;-70
2022/03/21 06:55:10;;;;;;;8.13;6.70;;;;;;;;;;5030465;28;20415;-69
2022/03/21 06:57:36;;;;;;;10.82;6.78;;;;;;;;;;5029903;28;20060;-70
2022/03/21 07:00:03;;;;;;;13.23;7.32;;;;;;;;;;5030340;28;20045;-70
2022/03/21 07:02:29;;;;;;;8.07;6.50;;;;;;;;;;5032161;28;20037;-70
2022/03/21 07:04:56;;;;;;;10.07;6.38;;;;;;;;;;5028636;28;20091;-70
2022/03/21 07:07:22;;;;;;;9.48;5.47;;;;;;;;;;5031653;28;20047;-69
2022/03/21 07:09:48;;;;;;;6.38;4.82;;;;;;;;;;5030364;28;20033;-70
2022/03/21 07:12:15;;;;;;;7.07;3.70;;;;;;;;;;5029596;28;20409;-70
2022/03/21 07:14:41;;;;;;;5.28;3.35;;;;;;;;;;5029632;28;20119;-70
2022/03/21 07:17:07;;;;;;;5.25;3.95;;;;;;;;;;5031131;28;20466;-70
2022/03/21 07:19:34;;;;;;;7.32;3.95;;;;;;;;;;5030590;28;20037;-70
2022/03/21 07:22:00;;;;;;;5.57;3.50;;;;;;;;;;5029844;28;20017;-70
2022/03/21 07:24:26;;;;;;;4.78;3.95;;;;;;;;;;5028780;28;20025;-69
2022/03/21 07:26:53;;;;;;;7.60;3.92;;;;;;;;;;5031154;28;20037;-70
2022/03/21 07:29:19;;;;;;;4.97;3.42;;;;;;;;;;5030969;28;20029;-70
2022/03/21 07:31:45;;;;;;;5.57;3.95;;;;;;;;;;5032252;28;20025;-70
2022/03/21 07:34:13;;;;;;;4.47;4.05;;;;;;;;;;5031065;28;20109;-70
2022/03/21 07:36:39;;;;;;;5.30;3.95;;;;;;;;;;5026385;28;20053;-70
2022/03/21 07:39:05;;;;;;;5.03;3.83;;;;;;;;;;5028617;28;20059;-70
2022/03/21 07:41:32;;;;;;;6.30;3.90;;;;;;;;;;5028491;28;20032;-70
2022/03/21 07:43:58;;;;;;;6.10;4.03;;;;;;;;;;5027299;28;20037;-70
2022/03/21 07:49:10;;;;;;;6.43;4.30;;;;;;;;;;5027167;28;20448;-70
2022/03/21 07:51:37;;;;;;;7.25;4.40;;;;;;;;;;5027401;28;20016;-71
2022/03/21 07:54:03;;;;;;;9.77;5.00;;;;;;;;;;5031338;28;20432;-70
2022/03/21 07:56:29;;;;;;;5.80;4.65;;;;;;;;;;5030756;28;20424;-71
2022/03/21 07:58:59;;;;;;;7.55;4.90;;;;;;;;;;5030380;28;20179;-70
2022/03/21 08:01:26;;;;;;;7.25;5.03;;;;;;;;;;5030684;28;20478;-71
2022/03/21 08:03:53;;;;;;;7.47;4.57;;;;;;;;;;5029828;28;20059;-70
2022/03/21 08:06:19;;;;;;;6.55;4.63;;;;;;;;;;5028011;28;20018;-70
2022/03/21 08:08:48;;;;;;;7.32;4.38;;;;;;;;;;5030686;28;20079;-70
2022/03/21 08:11:14;;;;;;;5.82;4.07;;;;;;;;;;5029220;28;20032;-70
2022/03/21 08:13:42;;;;;;;6.47;4.28;;;;;;;;;;5038239;28;20139;-70
2022/03/21 08:16:08;;;;;;;7.55;4.30;;;;;;;;;;5030767;28;20079;-70
2022/03/21 08:18:37;;;;;;;5.50;4.38;;;;;;;;;;5030101;28;20091;-70
2022/03/21 08:21:03;;;;;;;9.43;4.13;;;;;;;;;;5028461;28;20028;-70
2022/03/21 08:23:29;;;;;;;10.65;4.65;;;;;;;;;;5027924;28;20025;-71
2022/03/21 08:25:56;;;;;;;6.30;4.03;;;;;;;;;;5034481;28;20029;-70
2022/03/21 08:28:22;;;;;;;5.22;4.07;;;;;;;;;;5029397;28;20037;-70
2022/03/21 08:30:48;;;;;;;6.43;4.43;;;;;;;;;;5030195;28;20029;-70
2022/03/21 08:33:15;;;;;;;4.70;3.85;;;;;;;;;;5026708;28;20022;-70
2022/03/21 08:35:41;;;;;;;6.53;4.43;;;;;;;;;;5031635;28;20025;-70
2022/03/21 08:38:08;;;;;;;6.18;4.38;;;;;;;;;;5031245;28;20037;-71
2022/03/21 08:40:36;;;;;;;4.78;3.97;;;;;;;;;;5027346;28;20029;-70
2022/03/21 08:43:02;;;;;;;7.18;4.55;;;;;;;;;;5029415;28;20116;-70
2022/03/21 08:45:28;;;;;;;4.20;3.72;;;;;;;;;;5031579;28;20424;-70
2022/03/21 08:47:55;;;;;;;4.47;3.90;;;;;;;;;;5031546;28;20452;-70
2022/03/21 08:50:21;;;;;;;5.70;4.43;;;;;;;;;;5031889;28;20048;-71
2022/03/21 08:52:47;;;;;;;6.13;4.57;;;;;;;;;;5037138;28;20025;-71
2022/03/21 08:55:14;;;;;;;8.38;4.70;;;;;;;;;;5029747;28;20098;-72
2022/03/21 08:57:40;;;;;;;5.53;4.55;;;;;;;;;;5031873;28;20025;-71
2022/03/21 09:00:07;;;;;;;6.15;4.07;;;;;;;;;;5029084;28;20828;-71
2022/03/21 09:02:34;;;;;;;6.07;4.07;;;;;;;;;;5032558;28;20067;-70
2022/03/21 09:05:00;;;;;;;5.53;4.30;;;;;;;;;;5034035;28;20581;-71
2022/03/21 09:07:26;;;;;;;5.65;4.75;;;;;;;;;;5032179;28;20066;-70
2022/03/21 09:09:52;;;;;;;5.72;4.10;;;;;;;;;;5030705;28;20052;-71
2022/03/21 09:12:19;;;;;;;6.30;4.50;;;;;;;;;;5030969;28;20037;-71
2022/03/21 09:14:45;;;;;;;5.60;4.18;;;;;;;;;;5027420;28;20136;-71
2022/03/21 09:17:13;;;;;;;6.55;5.05;;;;;;;;;;5031887;28;20033;-72
2022/03/21 09:19:39;;;;;;;5.25;4.20;;;;;;;;;;5028770;28;20059;-71
2022/03/21 09:22:05;;;;;;;7.50;4.97;;;;;;;;;;5028957;28;20029;-71
2022/03/21 09:24:32;;;;;;;5.60;4.63;;;;;;;;;;5028877;28;20027;-71
2022/03/21 09:26:58;;;;;;;6.45;4.82;;;;;;;;;;5028352;28;20079;-71
2022/03/21 09:29:25;;;;;;;6.13;5.20;;;;;;;;;;5034219;28;20032;-71
2022/03/21 09:31:51;;;;;;;6.22;4.55;;;;;;;;;;5032432;28;20094;-71
2022/03/21 09:34:18;;;;;;;8.55;4.85;;;;;;;;;;5034132;28;20021;-70
2022/03/21 09:36:45;;;;;;;7.57;4.70;;;;;;;;;;5032636;28;20470;-70
2022/03/21 09:39:12;;;;;;;8.02;5.28;;;;;;;;;;5034248;28;20064;-71
2022/03/21 09:41:39;;;;;;;5.78;4.50;;;;;;;;;;5035046;28;20052;-71
2022/03/21 09:44:09;;;;;;;7.13;5.00;;;;;;;;;;5037202;28;20109;-72
2022/03/21 09:46:35;;;;;;;5.10;4.60;;;;;;;;;;5035402;28;20029;-71
2022/03/21 09:49:03;;;;;;;6.43;5.18;;;;;;;;;;5031675;28;20056;-70
2022/03/21 09:51:30;;;;;;;7.70;5.00;;;;;;;;;;5036752;28;20021;-70
2022/03/21 09:53:57;;;;;;;5.68;4.80;;;;;;;;;;5031995;28;20033;-70
2022/03/21 09:56:24;;;;;;;5.90;5.30;;;;;;;;;;5033902;28;20387;-70
2022/03/21 09:58:53;;;;;;;6.47;5.15;;;;;;;;;;5032002;28;20041;-70
2022/03/21 10:01:19;;;;;;;6.35;5.20;;;;;;;;;;5034065;28;20519;-76
2022/03/21 10:03:46;;;;;;;6.88;5.38;;;;;;;;;;5033845;28;20516;-70
2022/03/21 10:06:32;;;;;;;11.82;5.97;;;;;;;;;;5031858;28;20037;-70
2022/03/21 10:09:14;;;;;;;9.77;5.50;;;;;;;;;;5033340;28;20025;-73
2022/03/21 10:11:49;;;;;;;6.50;4.77;;;;;;;;;;5033006;28;20355;-71
2022/03/21 10:14:32;;;;;;;6.97;5.03;;;;;;;;;;5028366;28;20397;-71
2022/03/21 10:17:06;;;;;;;5.30;4.35;;;;;;;;;;5032172;28;20033;-71
2022/03/21 10:19:52;;;;;;;6.05;4.43;;;;;;;;;;5032007;28;20596;-70
2022/03/21 10:22:20;;;;;;;6.20;5.18;;;;;;;;;;5029730;28;20072;-71
2022/03/21 10:24:47;;;;;;;6.75;5.00;;;;;;;;;;5036002;28;20040;-70
2022/03/21 10:27:31;;;;;;;5.65;5.03;;;;;;;;;;5037477;28;20033;-70
2022/03/21 10:30:00;;;;;;;5.57;5.00;;;;;;;;;;5034890;28;20095;-70
2022/03/21 10:32:42;;;;;;;7.25;5.35;;;;;;;;;;5034928;28;20032;-70
2022/03/21 10:35:08;;;;;;;;;;;;;;;;;;5030805;28;20033;-69
2022/03/21 10:38:03;;;;;;;6.28;5.22;;;;;;;;;;5036764;28;20011;-70
2022/03/21 10:40:33;;;;;;;8.38;6.00;;;;;;;;;;5033627;28;20044;-71
2022/03/21 10:43:09;;;;;;;7.55;6.30;;;;;;;;;;5029605;28;20111;-70
2022/03/21 10:45:35;;;;;;;11.45;6.47;;;;;;;;;;5036437;28;20055;-72
2022/03/21 10:48:04;;;;;;;6.80;6.10;;;;;;;;;;5032531;28;20017;-70
2022/03/21 10:50:35;;;;;;;8.73;5.95;;;;;;;;;;5032932;28;20040;-72
2022/03/21 10:53:10;;;;;;;6.75;5.80;;;;;;;;;;5035492;28;20100;-71
2022/03/21 10:55:36;;;;;;;8.43;6.50;;;;;;;;;;5034074;28;20436;-72
2022/03/21 10:58:03;;;;;;;6.22;5.63;;;;;;;;;;5035956;28;20520;-70
2022/03/21 11:00:29;;;;;;;10.02;6.75;;;;;;;;;;5035121;28;20112;-71
2022/03/21 11:02:57;;;;;;;6.40;5.80;;;;;;;;;;5033203;28;20025;-71
2022/03/21 11:05:24;;;;;;;6.15;5.50;;;;;;;;;;5029678;28;20032;-71
2022/03/21 11:07:50;;;;;;;9.73;5.90;;;;;;;;;;5038123;28;20147;-70
2022/03/21 11:10:17;;;;;;;7.47;6.03;;;;;;;;;;5034993;28;20032;-70
2022/03/21 11:12:44;;;;;;;7.30;6.03;;;;;;;;;;5032982;28;20074;-70
2022/03/21 11:15:11;;;;;;;5.95;5.30;;;;;;;;;;5034968;28;20508;-69
2022/03/21 11:17:37;;;;;;;10.13;6.10;;;;;;;;;;5032149;28;20561;-69
2022/03/21 11:20:07;;;;;;;6.95;5.40;;;;;;;;;;5030135;28;20041;-69
2022/03/21 11:22:34;;;;;;;6.93;5.60;;;;;;;;;;5033457;28;20045;-69
2022/03/21 11:25:19;;;;;;;7.03;5.60;;;;;;;;;;5034620;28;20037;-70
2022/03/21 11:27:48;;;;;;;6.95;5.18;;;;;;;;;;5033175;28;20026;-71
2022/03/21 11:30:21;;;;;;;7.70;5.50;;;;;;;;;;5044889;28;20550;-70
2022/03/21 11:33:06;;;;;;;5.57;5.07;;;;;;;;;;5036207;28;20025;-71
2022/03/21 11:35:34;;;;;;;5.95;5.32;;;;;;;;;;5030454;28;20029;-73
2022/03/21 11:38:18;;;;;;;7.47;5.43;;;;;;;;;;5031299;28;20055;-70
2022/03/21 11:40:44;;;;;;;6.22;4.85;;;;;;;;;;5028256;28;20048;-70
2022/03/21 11:43:21;;;;;;;5.28;4.78;;;;;;;;;;5033423;28;20182;-71
2022/03/21 11:45:54;;;;;;;8.02;5.03;;;;;;;;;;5027969;28;20033;-71
2022/03/21 11:48:24;;;;;;;8.32;5.55;;;;;;;;;;5032939;28;20127;-72
2022/03/21 11:50:51;;;;;;;8.30;4.80;;;;;;;;;;5031699;28;20090;-70
2022/03/21 11:53:26;;;;;;;6.93;6.22;;;;;;;;;;5030007;28;20029;-70
2022/03/21 11:55:53;;;;;;;11.48;5.75;;;;;;;;;;5033965;28;20025;-71
2022/03/21 11:58:37;;;;;;;6.95;5.47;;;;;;;;;;5031694;28;20052;-70
2022/03/21 12:01:18;;;;;;;8.25;6.32;;;;;;;;;;5032350;28;20028;-70
2022/03/21 12:03:45;;;;;;;5.90;5.40;;;;;;;;;;5033391;28;20026;-70
2022/03/21 12:06:23;;;;;;;6.95;4.93;;;;;;;;;;5031222;28;20706;-70
2022/03/21 12:08:57;;;;;;;5.55;4.85;;;;;;;;;;5031639;28;20037;-72
2022/03/21 12:11:38;;;;;;;7.07;5.15;;;;;;;;;;5030040;28;20032;-69
2022/03/21 12:14:19;;;;;;;6.65;4.70;;;;;;;;;;5028257;28;20057;-69
2022/03/21 12:16:46;;;;;;;4.45;3.90;;;;;;;;;;5033239;28;20025;-75
2022/03/21 12:19:12;;;;;;;5.60;4.65;;;;;;;;;;5026421;28;20461;-69
2022/03/21 12:21:38;;;;;;;12.02;5.00;;;;;;;;;;5032314;28;20025;-70
2022/03/21 12:24:14;;;;;;;5.97;4.88;;;;;;;;;;5031246;28;20095;-69
2022/03/21 12:26:51;;;;;;;8.82;4.53;;;;;;;;;;5029566;28;20068;-70
2022/03/21 12:29:33;;;;;;;5.80;4.10;;;;;;;;;;5030310;28;20021;-70
2022/03/21 12:32:18;;;;;;;5.03;4.47;;;;;;;;;;5030347;28;20036;-70
2022/03/21 12:34:44;;;;;;;5.57;4.45;;;;;;;;;;5033165;28;20540;-75
2022/03/21 12:37:31;;;;;;;4.65;3.97;;;;;;;;;;5031110;28;20471;-71
2022/03/21 12:39:59;;;;;;;6.28;4.22;;;;;;;;;;5026547;28;20060;-69
2022/03/21 12:42:28;;;;;;;5.28;4.50;;;;;;;;;;5033152;28;20021;-70
2022/03/21 12:44:54;;;;;;;4.80;4.38;;;;;;;;;;5025976;28;20407;-70
2022/03/21 12:47:21;;;;;;;5.45;4.35;;;;;;;;;;5032960;28;20034;-71
2022/03/21 12:49:51;;;;;;;5.22;4.40;;;;;;;;;;5029611;28;20025;-70
2022/03/21 12:52:27;;;;;;;5.80;4.75;;;;;;;;;;5029057;28;20032;-70
2022/03/21 12:54:55;;;;;;;6.20;5.25;;;;;;;;;;5029827;28;20109;-75
2022/03/21 12:57:21;;;;;;;8.52;6.57;;;;;;;;;;5030602;28;20064;-70
2022/03/21 12:59:47;;;;;;;9.55;6.63;;;;;;;;;;5029415;28;20532;-70
2022/03/21 13:02:25;;;;;;;8.13;5.82;;;;;;;;;;5036296;28;20033;-70
2022/03/21 13:10:33;;;;;;;8.15;5.32;;;;;;;;;;5036534;28;20040;-70
2022/03/21 13:13:00;;;;;;;5.78;5.13;;;;;;;;;;5039098;28;20076;-72
2022/03/21 13:15:27;;;;;;;7.03;4.78;;;;;;;;;;5044184;28;20124;-74
2022/03/21 13:17:57;;;;;;;6.38;4.65;;;;;;;;;;5039410;28;20029;-72
2022/03/21 13:20:26;;;;;;;6.82;6.10;;;;;;;;;;5036664;28;20040;-69
2022/03/21 13:22:53;;;;;;;7.00;5.45;;;;;;;;;;5032295;28;20022;-71
2022/03/21 13:25:22;;;;;;;5.80;4.55;;;;;;;;;;5035808;28;20615;-69
2022/03/21 13:27:50;;;;;;;59.90;8.63;;;;;;;;;;5034128;28;20112;-70
2022/03/21 13:30:16;;;;;;;5.72;4.75;;;;;;;;;;5033384;28;20025;-71
2022/03/21 13:32:43;;;;;;;5.82;4.25;;;;;;;;;;5037804;28;20108;-71
2022/03/21 13:35:12;;;;;;;16.85;5.40;;;;;;;;;;5041671;28;20432;-70
2022/03/21 13:37:38;;;;;;;11.27;5.05;;;;;;;;;;5032598;28;20040;-70
2022/03/21 13:40:05;;;;;;;9.32;6.25;;;;;;;;;;5034523;28;20346;-69
2022/03/21 13:42:32;;;;;;;8.13;5.10;;;;;;;;;;5034651;28;20103;-70
2022/03/21 13:45:02;;;;;;;5.93;4.25;;;;;;;;;;5035218;28;20064;-69
2022/03/21 13:47:29;;;;;;;5.88;5.07;;;;;;;;;;5038614;28;20963;-74
2022/03/21 13:49:56;;;;;;;6.65;4.97;;;;;;;;;;5041324;28;20465;-71
2022/03/21 13:52:43;;;;;;;6.85;4.70;;;;;;;;;;5036927;28;20036;-71
2022/03/21 13:55:10;;;;;;;6.20;4.82;;;;;;;;;;5029636;28;20508;-70
2022/03/21 13:57:43;;;;;;;10.23;4.80;;;;;;;;;;5036996;28;20028;-70
2022/03/21 14:00:13;;;;;;;6.55;4.20;;;;;;;;;;5031852;28;20463;-69
2022/03/21 14:02:47;;;;;;;8.55;4.82;;;;;;;;;;5033707;28;20032;-69
2022/03/21 14:05:20;;;;;;;6.78;4.57;;;;;;;;;;5034801;28;20028;-69
2022/03/21 14:07:48;;;;;;;7.22;5.15;;;;;;;;;;5033329;28;20032;-70
2022/03/21 14:10:16;;;;;;;5.65;4.20;;;;;;;;;;5034673;28;20024;-69
2022/03/21 14:12:42;;;;;;;7.18;5.63;;;;;;;;;;5031522;28;20022;-69
2022/03/21 14:15:10;;;;;;;8.02;4.38;;;;;;;;;;5032669;28;20078;-69
2022/03/21 14:17:37;;;;;;;5.35;4.85;;;;;;;;;;5030971;28;20017;-70
2022/03/21 14:20:04;;;;;;;6.40;4.88;;;;;;;;;;5036718;28;20025;-69
2022/03/21 14:22:30;;;;;;;12.02;5.25;;;;;;;;;;5034659;28;20450;-71
2022/03/21 14:24:56;;;;;;;6.68;4.85;;;;;;;;;;5036360;28;20025;-72
2022/03/21 14:27:22;;;;;;;6.53;4.50;;;;;;;;;;5037812;28;20032;-70
2022/03/21 14:29:48;;;;;;;4.82;4.32;;;;;;;;;;5036046;28;20053;-70
2022/03/21 14:32:14;;;;;;;5.15;4.38;;;;;;;;;;5034454;28;20021;-70
2022/03/21 14:34:40;;;;;;;5.35;4.85;;;;;;;;;;5037210;28;20086;-69
2022/03/21 14:37:07;;;;;;;6.95;5.30;;;;;;;;;;5038047;28;20040;-70
2022/03/21 14:39:33;;;;;;;6.72;4.80;;;;;;;;;;5030170;28;20037;-70
2022/03/21 14:42:01;;;;;;;8.10;4.93;;;;;;;;;;5029561;28;20033;-69
2022/03/21 14:44:27;;;;;;;5.13;4.43;;;;;;;;;;5034699;28;20033;-70
2022/03/21 14:46:55;;;;;;;5.90;5.15;;;;;;;;;;5037030;28;20091;-69
2022/03/21 14:49:21;;;;;;;5.85;5.03;;;;;;;;;;5035731;28;20029;-70
2022/03/21 14:51:48;;;;;;;6.53;5.07;;;;;;;;;;5031796;28;20025;-70
2022/03/21 14:54:14;;;;;;;6.65;4.68;;;;;;;;;;5035285;28;20074;-69
2022/03/21 14:56:40;;;;;;;5.70;4.50;;;;;;;;;;5034542;28;20028;-70
2022/03/21 14:59:06;;;;;;;5.57;4.93;;;;;;;;;;5028988;28;20029;-70
2022/03/21 15:01:33;;;;;;;6.05;4.85;;;;;;;;;;5037254;28;20059;-69
2022/03/21 15:03:59;;;;;;;5.93;5.10;;;;;;;;;;5032197;28;20060;-69
2022/03/21 15:06:25;;;;;;;6.70;5.25;;;;;;;;;;5032912;28;20025;-70
2022/03/21 15:08:52;;;;;;;5.60;4.88;;;;;;;;;;5030132;28;20022;-71